sensor_id;sensor_type;location;lat;lon;timestamp;pressure;altitude;pressure_sealevel;temperature;humidity
69796;BME280;57073;45.650;9.612;2023-02-24T00:07:18;99135.16;;;11.84;68.29
69796;BME280;57073;45.650;9.612;2023-02-24T00:17:19;99133.59;;;11.76;69.09
69796;BME280;57073;45.650;9.612;2023-02-24T00:27:19;99133.28;;;11.84;68.76
69796;BME280;57073;45.650;9.612;2023-02-24T00:37:20;99133.31;;;11.96;68.38
69796;BME280;57073;45.650;9.612;2023-02-24T00:47:23;99127.47;;;11.87;68.92
69796;BME280;57073;45.650;9.612;2023-02-24T00:57:24;99123.69;;;11.88;68.97
69796;BME280;57073;45.650;9.612;2023-02-24T01:07:24;99114.22;;;11.86;68.80
69796;BME280;57073;45.650;9.612;2023-02-24T01:17:24;99107.63;;;12.00;67.84
69796;BME280;57073;45.650;9.612;2023-02-24T01:27:24;99087.72;;;11.59;70.35
69796;BME280;57073;45.650;9.612;2023-02-24T01:37:25;99096.28;;;11.68;69.87
69796;BME280;57073;45.650;9.612;2023-02-24T01:47:27;99094.84;;;11.54;69.90
69796;BME280;57073;45.650;9.612;2023-02-24T01:57:32;99080.41;;;11.36;70.03
69796;BME280;57073;45.650;9.612;2023-02-24T02:07:34;99075.88;;;11.37;70.21
69796;BME280;57073;45.650;9.612;2023-02-24T02:48:29;99050.19;;;11.52;69.54
69796;BME280;57073;45.650;9.612;2023-02-24T02:58:37;99047.63;;;11.46;69.82
69796;BME280;57073;45.650;9.612;2023-02-24T03:08:43;99043.50;;;11.43;69.99
69796;BME280;57073;45.650;9.612;2023-02-24T03:19:03;99050.69;;;11.49;69.46
69796;BME280;57073;45.650;9.612;2023-02-24T03:29:16;99046.25;;;11.55;68.76
69796;BME280;57073;45.650;9.612;2023-02-24T03:39:23;99039.88;;;11.38;70.20
69796;BME280;57073;45.650;9.612;2023-02-24T03:49:24;99031.22;;;11.36;70.05
69796;BME280;57073;45.650;9.612;2023-02-24T04:00:05;99036.59;;;11.36;69.77
69796;BME280;57073;45.650;9.612;2023-02-24T04:10:42;99026.78;;;11.29;70.12
69796;BME280;57073;45.650;9.612;2023-02-24T04:20:52;99014.56;;;11.15;70.44
69796;BME280;57073;45.650;9.612;2023-02-24T04:30:56;99005.47;;;11.16;70.87
69796;BME280;57073;45.650;9.612;2023-02-24T04:40:57;98983.78;;;11.29;70.34
69796;BME280;57073;45.650;9.612;2023-02-24T04:50:59;98986.22;;;11.19;70.15
69796;BME280;57073;45.650;9.612;2023-02-24T05:01:08;98983.25;;;11.09;71.03
69796;BME280;57073;45.650;9.612;2023-02-24T05:11:14;98978.56;;;11.04;71.41
69796;BME280;57073;45.650;9.612;2023-02-24T05:21:16;98974.16;;;11.10;71.32
69796;BME280;57073;45.650;9.612;2023-02-24T05:31:34;98961.75;;;11.09;71.24
69796;BME280;57073;45.650;9.612;2023-02-24T05:41:38;98960.03;;;11.15;71.84
69796;BME280;57073;45.650;9.612;2023-02-24T05:51:41;98951.06;;;11.21;69.93
69796;BME280;57073;45.650;9.612;2023-02-24T06:01:54;98954.19;;;11.06;69.38
69796;BME280;57073;45.650;9.612;2023-02-24T06:11:54;98962.09;;;11.01;69.10
69796;BME280;57073;45.650;9.612;2023-02-24T06:21:55;98963.69;;;10.90;67.42
69796;BME280;57073;45.650;9.612;2023-02-24T06:31:56;98969.88;;;11.21;65.50
69796;BME280;57073;45.650;9.612;2023-02-24T06:41:57;98976.78;;;11.28;64.69
69796;BME280;57073;45.650;9.612;2023-02-24T06:52:03;98972.94;;;11.36;64.18
69796;BME280;57073;45.650;9.612;2023-02-24T07:02:03;98982.41;;;11.39;64.74
69796;BME280;57073;45.650;9.612;2023-02-24T07:12:07;98989.22;;;11.53;64.49
69796;BME280;57073;45.650;9.612;2023-02-24T07:22:08;99000.34;;;11.57;65.63
69796;BME280;57073;45.650;9.612;2023-02-24T07:32:09;98993.44;;;11.73;65.50
69796;BME280;57073;45.650;9.612;2023-02-24T07:42:10;98981.75;;;11.67;65.83
69796;BME280;57073;45.650;9.612;2023-02-24T07:52:14;98996.47;;;11.64;66.13
69796;BME280;57073;45.650;9.612;2023-02-24T08:02:15;98998.81;;;11.73;66.29
69796;BME280;57073;45.650;9.612;2023-02-24T08:12:17;98989.63;;;11.80;65.46
69796;BME280;57073;45.650;9.612;2023-02-24T08:22:20;98981.78;;;11.91;64.42
69796;BME280;57073;45.650;9.612;2023-02-24T08:42:25;98982.63;;;12.03;64.52
69796;BME280;57073;45.650;9.612;2023-02-24T08:52:33;98979.59;;;12.11;65.10
69796;BME280;57073;45.650;9.612;2023-02-24T09:02:34;98975.34;;;12.27;64.20
69796;BME280;57073;45.650;9.612;2023-02-24T09:12:39;98961.22;;;11.96;64.91
69796;BME280;57073;45.650;9.612;2023-02-24T09:22:40;98958.31;;;11.98;64.96
69796;BME280;57073;45.650;9.612;2023-02-24T09:32:59;98955.13;;;12.13;65.46
69796;BME280;57073;45.650;9.612;2023-02-24T09:43:00;98953.94;;;12.32;65.23
69796;BME280;57073;45.650;9.612;2023-02-24T09:53:11;98949.34;;;12.44;65.68
69796;BME280;57073;45.650;9.612;2023-02-24T10:03:22;98934.47;;;12.54;64.04
69796;BME280;57073;45.650;9.612;2023-02-24T10:13:52;98932.94;;;12.87;64.01
69796;BME280;57073;45.650;9.612;2023-02-24T10:24:13;98928.69;;;12.91;62.48
69796;BME280;57073;45.650;9.612;2023-02-24T10:34:26;98920.16;;;13.39;62.04
69796;BME280;57073;45.650;9.612;2023-02-24T10:44:30;98910.16;;;13.74;60.65
69796;BME280;57073;45.650;9.612;2023-02-24T10:54:35;98897.97;;;13.88;60.45
69796;BME280;57073;45.650;9.612;2023-02-24T11:04:59;98878.44;;;13.81;59.95
69796;BME280;57073;45.650;9.612;2023-02-24T11:15:19;98862.31;;;14.25;59.38
69796;BME280;57073;45.650;9.612;2023-02-24T11:25:47;98847.44;;;14.50;58.96
69796;BME280;57073;45.650;9.612;2023-02-24T11:46:00;98802.94;;;14.80;57.94
69796;BME280;57073;45.650;9.612;2023-02-24T11:56:10;98778.59;;;14.74;58.15
69796;BME280;57073;45.650;9.612;2023-02-24T12:06:25;98755.94;;;15.18;57.55
69796;BME280;57073;45.650;9.612;2023-02-24T12:16:31;98735.84;;;15.46;57.15
69796;BME280;57073;45.650;9.612;2023-02-24T12:47:05;98693.63;;;15.40;56.40
69796;BME280;57073;45.650;9.612;2023-02-24T13:17:32;98640.44;;;14.98;57.99
69796;BME280;57073;45.650;9.612;2023-02-24T13:27:34;98623.19;;;15.09;56.56
69796;BME280;57073;45.650;9.612;2023-02-24T13:37:37;98618.88;;;15.08;55.55
69796;BME280;57073;45.650;9.612;2023-02-24T14:08:20;98575.56;;;14.93;55.36
69796;BME280;57073;45.650;9.612;2023-02-24T14:18:27;98577.50;;;15.03;55.72
69796;BME280;57073;45.650;9.612;2023-02-24T14:28:30;98571.81;;;14.99;55.85
69796;BME280;57073;45.650;9.612;2023-02-24T14:38:37;98554.03;;;15.08;55.76
69796;BME280;57073;45.650;9.612;2023-02-24T14:48:38;98536.72;;;15.09;55.67
69796;BME280;57073;45.650;9.612;2023-02-24T14:58:47;98518.91;;;15.08;54.99
69796;BME280;57073;45.650;9.612;2023-02-24T15:08:56;98512.38;;;15.04;55.92
69796;BME280;57073;45.650;9.612;2023-02-24T15:19:00;98505.38;;;15.13;55.87
69796;BME280;57073;45.650;9.612;2023-02-24T15:29:11;98503.25;;;15.16;55.95
69796;BME280;57073;45.650;9.612;2023-02-24T15:39:20;98478.91;;;15.10;55.50
69796;BME280;57073;45.650;9.612;2023-02-24T15:49:22;98468.81;;;14.80;55.88
69796;BME280;57073;45.650;9.612;2023-02-24T15:59:23;98467.47;;;14.78;55.99
69796;BME280;57073;45.650;9.612;2023-02-24T16:09:36;98446.91;;;14.71;55.91
69796;BME280;57073;45.650;9.612;2023-02-24T16:19:38;98439.25;;;14.53;55.76
69796;BME280;57073;45.650;9.612;2023-02-24T16:29:38;98435.47;;;14.49;55.87
69796;BME280;57073;45.650;9.612;2023-02-24T16:39:39;98441.09;;;14.42;56.77
69796;BME280;57073;45.650;9.612;2023-02-24T16:49:40;98435.91;;;14.35;56.75
69796;BME280;57073;45.650;9.612;2023-02-24T16:59:40;98433.19;;;14.25;57.47
69796;BME280;57073;45.650;9.612;2023-02-24T17:09:41;98428.78;;;14.14;57.56
69796;BME280;57073;45.650;9.612;2023-02-24T17:19:41;98437.13;;;14.07;57.88
69796;BME280;57073;45.650;9.612;2023-02-24T17:29:41;98428.50;;;14.05;58.26
69796;BME280;57073;45.650;9.612;2023-02-24T17:39:42;98430.63;;;13.98;60.51
69796;BME280;57073;45.650;9.612;2023-02-24T17:49:42;98435.19;;;13.97;59.66
69796;BME280;57073;45.650;9.612;2023-02-24T17:59:43;98436.75;;;13.88;61.50
69796;BME280;57073;45.650;9.612;2023-02-24T18:09:47;98439.94;;;13.80;62.30
69796;BME280;57073;45.650;9.612;2023-02-24T18:19:47;98430.16;;;13.74;63.32
69796;BME280;57073;45.650;9.612;2023-02-24T18:29:47;98428.84;;;13.76;65.08
69796;BME280;57073;45.650;9.612;2023-02-24T18:39:48;98423.16;;;13.73;65.14
69796;BME280;57073;45.650;9.612;2023-02-24T18:49:49;98407.56;;;13.80;64.99
69796;BME280;57073;45.650;9.612;2023-02-24T18:59:50;98404.22;;;13.63;66.79
69796;BME280;57073;45.650;9.612;2023-02-24T19:09:50;98397.59;;;13.43;66.65
69796;BME280;57073;45.650;9.612;2023-02-24T19:19:51;98396.28;;;13.46;67.66
69796;BME280;57073;45.650;9.612;2023-02-24T19:29:53;98396.03;;;13.47;67.58
69796;BME280;57073;45.650;9.612;2023-02-24T19:39:53;98395.69;;;13.38;68.59
69796;BME280;57073;45.650;9.612;2023-02-24T19:49:54;98394.75;;;13.28;68.30
69796;BME280;57073;45.650;9.612;2023-02-24T19:59:55;98382.03;;;13.23;68.35
69796;BME280;57073;45.650;9.612;2023-02-24T20:09:55;98383.28;;;13.10;69.56
69796;BME280;57073;45.650;9.612;2023-02-24T20:19:56;98375.19;;;13.10;69.43
69796;BME280;57073;45.650;9.612;2023-02-24T20:29:56;98379.56;;;13.16;69.36
69796;BME280;57073;45.650;9.612;2023-02-24T20:39:57;98376.59;;;13.18;69.08
69796;BME280;57073;45.650;9.612;2023-02-24T20:49:58;98384.19;;;13.21;69.04
69796;BME280;57073;45.650;9.612;2023-02-24T20:59:58;98369.84;;;13.15;67.66
69796;BME280;57073;45.650;9.612;2023-02-24T21:10:03;98355.28;;;13.11;67.16
69796;BME280;57073;45.650;9.612;2023-02-24T21:20:05;98345.44;;;12.95;67.53
69796;BME280;57073;45.650;9.612;2023-02-24T21:30:07;98334.44;;;12.96;67.43
69796;BME280;57073;45.650;9.612;2023-02-24T21:40:08;98327.59;;;12.83;68.78
69796;BME280;57073;45.650;9.612;2023-02-24T21:50:12;98308.81;;;12.94;67.16
69796;BME280;57073;45.650;9.612;2023-02-24T22:00:15;98310.84;;;12.81;67.90
69796;BME280;57073;45.650;9.612;2023-02-24T22:10:20;98300.31;;;12.75;67.25
69796;BME280;57073;45.650;9.612;2023-02-24T22:20:21;98290.66;;;12.79;65.40
69796;BME280;57073;45.650;9.612;2023-02-24T22:30:21;98286.84;;;12.75;65.14
69796;BME280;57073;45.650;9.612;2023-02-24T22:40:22;98265.22;;;12.64;64.36
69796;BME280;57073;45.650;9.612;2023-02-24T22:50:22;98254.91;;;12.56;64.87
69796;BME280;57073;45.650;9.612;2023-02-24T23:00:22;98242.34;;;12.67;63.74
69796;BME280;57073;45.650;9.612;2023-02-24T23:10:25;98242.31;;;12.62;65.79
69796;BME280;57073;45.650;9.612;2023-02-24T23:20:25;98228.28;;;12.60;66.73
69796;BME280;57073;45.650;9.612;2023-02-24T23:30:27;98236.91;;;12.57;67.46
69796;BME280;57073;45.650;9.612;2023-02-24T23:40:27;98217.47;;;12.50;66.17
69796;BME280;57073;45.650;9.612;2023-02-24T23:50:28;98211.84;;;12.24;69.22
